EDT,Max TemperatureF,Mean TemperatureF,Min TemperatureF,Max Dew PointF,MeanDew PointF,Min DewpointF,Max Humidity, Mean Humidity, Min Humidity, Max Sea Level PressureIn, Mean Sea Level PressureIn, Min Sea Level PressureIn, Max VisibilityMiles, Mean VisibilityMiles, Min VisibilityMiles, Max Wind SpeedMPH, Mean Wind SpeedMPH, Max Gust SpeedMPH,PrecipitationIn, CloudCover, Events, WindDirDegrees
2013-8-1,81,71,61,65,63,58,93,72,50,29.96,29.92,29.87,10,8,2,14,4,18,0.06,6,Rain,293
2013-8-2,75,66,56,61,57,54,93,73,53,30.01,29.96,29.94,10,5,0,13,4,17,0.01,3,Fog-Rain,202
2013-8-3,81,69,57,65,61,53,87,66,45,30.02,29.99,29.94,10,9,5,14,3,18,0.16,6,Rain,283
2013-8-4,76,65,54,61,54,52,93,71,49,30.13,30.08,30.02,10,7,0,17,5,21,0.01,2,Fog,342
2013-8-5,75,64,52,61,53,48,96,73,49,30.17,30.12,30.03,10,6,0,8,1,12,0.00,3,Fog,167
2013-8-6,81,68,55,61,56,52,93,69,45,30.04,30.02,29.97,10,6,0,9,2,14,0.00,1,Fog,165
2013-8-7,83,72,61,73,66,58,93,79,65,29.99,29.95,29.91,10,7,0,20,3,29,0.50,3,Fog-Rain-Thunderstorm,134
2013-8-8,84,77,70,73,70,66,93,81,69,29.99,29.95,29.91,10,6,4,10,3,14,0.05,6,Rain-Thunderstorm,140
2013-8-9,80,71,62,70,67,60,97,77,56,30.05,29.95,29.90,10,4,1,10,3,13,0.16,6,Rain-Thunderstorm,313
2013-8-10,83,72,61,68,63,59,93,74,54,30.11,30.08,30.06,10,9,5,12,1,16,0.00,3,,15
2013-8-11,84,74,63,68,63,58,90,74,58,30.13,30.09,30.03,10,10,5,8,2,13,0.00,4,,349
2013-8-12,83,72,61,70,62,57,93,72,51,30.10,30.04,29.88,10,5,0,9,2,13,0.02,2,Fog-Rain-Thunderstorm,183
2013-8-13,78,65,52,69,62,48,90,72,54,30.02,29.88,29.81,10,7,2,17,6,24,0.00,4,,315
2013-8-14,71,60,49,55,50,46,89,72,55,30.18,30.12,30.03,10,10,9,1,3,1,T,4,,318
2013-8-15,75,61,47,54,48,44,96,67,38,30.24,30.19,30.13,10,5,0,8,1,10,0.01,2,Fog,162
2013-8-16,78,65,51,56,53,49,89,66,42,30.20,30.17,30.14,10,9,7,9,3,14,0.00,0,,40
2013-8-17,81,67,53,60,55,51,93,66,39,30.24,30.21,30.19,10,9,4,13,2,16,0.01,0,,125
2013-8-18,73,66,58,64,61,55,90,79,68,30.23,30.19,30.14,10,9,6,7,2,9,T,7,Rain,154
2013-8-19,81,71,60,64,61,57,90,68,45,30.17,30.13,30.09,10,6,1,7,1,10,0.00,3,,303
2013-8-20,84,71,58,65,59,55,93,70,47,30.21,30.16,30.13,10,4,0,9,1,12,0.00,2,Fog,183
2013-8-21,87,73,59,68,61,57,97,73,48,30.22,30.17,30.08,10,4,0,7,1,9,0.00,2,Fog,155
2013-8-22,83,73,63,70,66,60,93,79,64,30.11,30.07,30.00,10,9,2,12,2,16,0.02,3,Rain-Thunderstorm,229
2013-8-23,84,72,59,68,66,56,97,71,45,30.18,30.06,30.00,10,4,0,12,3,16,0.41,5,Fog-Rain-Thunderstorm,359
2013-8-24,83,69,54,60,55,51,93,65,36,30.31,30.26,30.19,10,8,1,8,1,12,0.00,0,,64
2013-8-25,84,69,53,63,54,50,93,68,43,30.38,30.33,30.25,10,6,1,10,2,16,0.00,1,,200
2013-8-26,86,72,58,68,62,55,90,69,48,30.26,30.16,30.04,10,8,5,10,3,15,0.00,0,,200
2013-8-27,80,74,68,72,69,65,90,82,74,30.08,30.01,29.94,10,6,2,9,3,14,0.10,4,Rain,232
2013-8-28,86,79,72,72,71,68,87,76,65,29.95,29.89,29.84,10,8,4,20,4,25,T,6,,314
2013-8-29,88,78,67,68,66,64,93,70,46,30.07,30.02,29.95,10,6,0,9,2,15,0.00,4,,3
2013-8-30,87,76,66,69,67,64,90,69,48,30.04,30.00,29.85,10,4,0,8,2,,0.01,2,Fog,212
2013-8-31,88,79,69,70,68,66,97,77,57,29.86,29.82,29.76,10,7,2,12,4,14,0.05,3,Rain-Thunderstorm,227